createdAt,value
2018-06-16T00:00:09.873Z,93.70
2018-06-16T00:02:37.181Z,94.00
2018-06-16T00:05:04.506Z,94.30
2018-06-16T00:07:31.808Z,94.70
2018-06-16T00:09:59.193Z,94.80
2018-06-16T00:12:26.500Z,94.90
2018-06-16T00:14:53.825Z,94.80
2018-06-16T00:17:21.153Z,94.80
2018-06-16T00:19:48.492Z,94.70
2018-06-16T00:22:15.877Z,94.80
2018-06-16T00:24:43.189Z,94.90
2018-06-16T00:27:10.547Z,95.20
2018-06-16T00:29:37.874Z,95.20
2018-06-16T00:32:05.214Z,95.40
2018-06-16T00:34:32.552Z,94.60
2018-06-16T00:36:59.917Z,94.80
2018-06-16T00:39:27.258Z,94.60
2018-06-16T00:41:54.727Z,94.50
2018-06-16T00:44:22.081Z,94.50
2018-06-16T00:46:49.569Z,94.50
2018-06-16T00:49:16.896Z,94.60
2018-06-16T00:51:44.217Z,94.60
2018-06-16T00:54:11.577Z,94.70
2018-06-16T00:56:38.941Z,94.80
2018-06-16T00:59:06.253Z,94.70
2018-06-16T01:01:33.565Z,94.80
2018-06-16T01:04:00.891Z,94.70
2018-06-16T01:06:28.193Z,95.00
2018-06-16T01:08:55.753Z,94.80
2018-06-16T01:11:23.062Z,94.70
2018-06-16T01:13:50.393Z,94.80
2018-06-16T01:16:17.714Z,95.10
2018-06-16T01:18:45.105Z,94.70
2018-06-16T01:21:12.416Z,94.60
2018-06-16T01:23:39.785Z,94.90
2018-06-16T01:26:07.223Z,95.20
2018-06-16T01:28:34.525Z,95.00
2018-06-16T01:31:01.853Z,95.30
2018-06-16T01:33:29.184Z,95.10
2018-06-16T01:35:56.513Z,95.30
2018-06-16T01:38:23.836Z,95.60
2018-06-16T01:40:51.213Z,95.70
2018-06-16T01:43:18.579Z,95.40
2018-06-16T01:45:45.889Z,95.40
2018-06-16T01:48:13.349Z,95.30
2018-06-16T01:50:40.693Z,95.40
2018-06-16T01:53:08.034Z,95.80
2018-06-16T01:55:35.345Z,95.80
2018-06-16T01:58:02.700Z,96.00
2018-06-16T02:00:30.139Z,96.00
2018-06-16T02:02:57.445Z,95.90
2018-06-16T02:05:24.756Z,95.90
2018-06-16T02:07:52.265Z,96.10
2018-06-16T02:10:19.575Z,96.00
2018-06-16T02:12:46.905Z,96.30
2018-06-16T02:15:14.319Z,96.20
2018-06-16T02:17:41.669Z,96.20
2018-06-16T02:20:09.030Z,96.10
2018-06-16T02:22:36.461Z,95.70
2018-06-16T02:25:03.825Z,95.80
2018-06-16T02:27:31.130Z,95.90
2018-06-16T02:29:58.442Z,96.00
2018-06-16T02:32:25.757Z,96.10
2018-06-16T02:34:53.102Z,96.20
2018-06-16T02:37:20.426Z,96.50
2018-06-16T02:39:47.751Z,96.20
2018-06-16T02:42:15.065Z,96.40
2018-06-16T02:44:42.381Z,96.40
2018-06-16T02:47:09.698Z,96.50
2018-06-16T02:49:37.013Z,96.60
2018-06-16T02:52:04.568Z,96.60
2018-06-16T02:54:31.877Z,96.70
2018-06-16T02:56:59.232Z,96.50
2018-06-16T02:59:26.534Z,96.80
2018-06-16T03:01:54.017Z,96.70
2018-06-16T03:04:21.345Z,97.10
2018-06-16T03:06:48.666Z,97.50
2018-06-16T03:09:15.993Z,97.70
2018-06-16T03:11:43.930Z,98.00
2018-06-16T03:14:11.257Z,97.40
2018-06-16T03:16:38.676Z,97.50
2018-06-16T03:19:06.010Z,97.90
2018-06-16T03:21:33.341Z,97.90
2018-06-16T03:24:00.685Z,98.10
2018-06-16T03:26:27.994Z,98.10
2018-06-16T03:28:55.328Z,98.10
2018-06-16T03:31:22.749Z,98.20
2018-06-16T03:33:50.070Z,98.20
2018-06-16T03:36:17.380Z,98.00
2018-06-16T03:38:44.717Z,98.20
2018-06-16T03:41:12.141Z,98.20
2018-06-16T03:43:39.549Z,98.10
2018-06-16T03:46:06.907Z,98.20
2018-06-16T03:48:34.533Z,98.00
2018-06-16T03:51:01.897Z,98.00
2018-06-16T03:53:29.209Z,98.10
2018-06-16T03:55:56.541Z,98.20
2018-06-16T03:58:23.893Z,98.20
2018-06-16T04:00:51.225Z,98.30
2018-06-16T04:03:18.549Z,98.10
2018-06-16T04:05:45.873Z,98.40
2018-06-16T04:08:13.209Z,98.30
2018-06-16T04:10:40.549Z,98.70
2018-06-16T04:13:07.865Z,98.50
2018-06-16T04:15:35.185Z,98.60
2018-06-16T04:18:02.509Z,98.60
2018-06-16T04:20:29.837Z,97.90
2018-06-16T04:22:57.162Z,98.30
2018-06-16T04:25:24.465Z,98.20
2018-06-16T04:27:51.816Z,98.10
2018-06-16T04:30:19.229Z,98.10
2018-06-16T04:32:46.656Z,98.40
2018-06-16T04:35:14.000Z,99.00
2018-06-16T04:37:41.332Z,98.60
2018-06-16T04:40:08.668Z,98.50
2018-06-16T04:42:35.989Z,99.10
2018-06-16T04:45:03.458Z,99.20
2018-06-16T04:47:30.752Z,99.10
2018-06-16T04:49:58.205Z,99.00
2018-06-16T04:52:25.525Z,99.30
2018-06-16T04:54:53.388Z,99.40
2018-06-16T04:57:20.697Z,98.50
2018-06-16T04:59:48.129Z,99.30
2018-06-16T05:02:15.469Z,99.40
2018-06-16T05:04:42.781Z,99.50
2018-06-16T05:07:10.112Z,99.10
2018-06-16T05:09:37.433Z,99.70
2018-06-16T05:12:04.866Z,99.50
2018-06-16T05:14:32.181Z,99.70
2018-06-16T05:16:59.631Z,99.60
2018-06-16T05:19:26.926Z,99.60
2018-06-16T05:21:54.311Z,99.30
2018-06-16T05:26:49.005Z,99.10
2018-06-16T05:29:16.342Z,98.30
2018-06-16T05:31:43.654Z,98.50
2018-06-16T05:34:10.961Z,98.80
2018-06-16T05:36:38.291Z,99.10
2018-06-16T05:39:07.477Z,97.80
2018-06-16T05:41:34.806Z,99.00
2018-06-16T05:44:02.121Z,96.90
2018-06-16T05:46:29.473Z,99.10
2018-06-16T05:48:56.774Z,98.20
2018-06-16T05:51:24.214Z,97.60
2018-06-16T05:56:18.837Z,98.00
2018-06-16T05:58:46.196Z,98.10
2018-06-16T06:01:13.529Z,97.50
2018-06-16T06:03:40.839Z,98.30
2018-06-16T06:06:08.166Z,98.60
2018-06-16T06:08:35.503Z,96.90
2018-06-16T06:11:02.832Z,97.20
2018-06-16T06:13:30.230Z,98.70
2018-06-16T06:15:57.573Z,97.80
2018-06-16T06:18:24.901Z,96.90
2018-06-16T06:20:52.233Z,96.20
2018-06-16T06:23:19.586Z,97.20
2018-06-16T06:25:46.930Z,97.40
2018-06-16T06:28:14.249Z,97.00
2018-06-16T06:30:41.609Z,98.00
2018-06-16T06:33:08.995Z,97.70
2018-06-16T06:35:36.673Z,96.70
2018-06-16T06:38:04.017Z,97.90
2018-06-16T06:40:31.350Z,96.20
2018-06-16T06:42:59.013Z,98.00
2018-06-16T06:45:26.337Z,96.90
2018-06-16T06:47:53.781Z,97.20
2018-06-16T06:50:21.109Z,97.30
2018-06-16T06:52:48.441Z,97.00
2018-06-16T06:55:15.734Z,98.10
2018-06-16T06:57:43.105Z,97.70
2018-06-16T07:00:10.477Z,98.00
2018-06-16T07:02:37.806Z,96.40
2018-06-16T07:05:05.118Z,97.00
2018-06-16T07:07:32.549Z,97.90
2018-06-16T07:09:59.893Z,97.50
2018-06-16T07:12:27.360Z,97.30
2018-06-16T07:14:54.709Z,97.80
2018-06-16T07:17:22.036Z,97.10
2018-06-16T07:19:49.357Z,97.40
2018-06-16T07:22:16.722Z,97.50
2018-06-16T07:24:44.093Z,96.90
2018-06-16T07:27:11.433Z,96.20
2018-06-16T07:29:38.757Z,96.40
2018-06-16T07:32:06.104Z,97.20
2018-06-16T07:34:33.413Z,96.70
2018-06-16T07:37:00.732Z,96.60
2018-06-16T07:39:28.109Z,96.20
2018-06-16T07:41:55.522Z,95.70
2018-06-16T07:44:22.829Z,95.50
2018-06-16T07:46:50.169Z,94.50
2018-06-16T07:49:17.477Z,95.20
2018-06-16T07:51:44.797Z,95.10
2018-06-16T07:54:12.105Z,94.80
2018-06-16T07:56:39.416Z,94.40
2018-06-16T07:59:06.760Z,93.90
2018-06-16T08:01:34.076Z,93.80
2018-06-16T08:04:01.389Z,93.40
2018-06-16T08:06:28.803Z,94.20
2018-06-16T08:08:56.359Z,93.00
2018-06-16T08:11:23.697Z,94.00
2018-06-16T08:13:51.022Z,93.00
2018-06-16T08:16:18.348Z,93.50
2018-06-16T08:18:45.725Z,93.10
2018-06-16T08:21:13.048Z,92.50
2018-06-16T08:23:40.379Z,92.50
2018-06-16T08:26:08.053Z,92.90
2018-06-16T08:28:35.509Z,92.70
2018-06-16T08:31:02.813Z,92.40
2018-06-16T08:33:30.267Z,91.40
2018-06-16T08:35:57.605Z,90.60
2018-06-16T08:38:24.905Z,92.10
2018-06-16T08:40:52.338Z,92.30
2018-06-16T08:43:19.757Z,92.40
2018-06-16T08:45:47.030Z,91.70
2018-06-16T08:48:14.453Z,91.00
2018-06-16T08:50:41.943Z,90.30
2018-06-16T08:53:09.261Z,91.40
2018-06-16T08:55:36.667Z,91.00
2018-06-16T08:58:03.890Z,89.60
2018-06-16T09:00:31.250Z,90.80
2018-06-16T09:02:58.554Z,90.10
2018-06-16T09:05:25.922Z,88.60
2018-06-16T09:07:53.277Z,91.00
2018-06-16T09:10:20.609Z,89.30
2018-06-16T09:12:47.924Z,90.70
2018-06-16T09:15:15.371Z,86.00
2018-06-16T09:17:42.682Z,87.30
2018-06-16T09:20:10.054Z,85.90
2018-06-16T09:22:37.406Z,87.50
2018-06-16T09:25:04.810Z,84.20
2018-06-16T09:27:32.154Z,85.50
2018-06-16T09:29:59.470Z,81.70
2018-06-16T09:32:26.813Z,84.20
2018-06-16T09:34:54.122Z,81.40
2018-06-16T09:37:21.589Z,85.70
2018-06-16T09:39:49.001Z,84.30
2018-06-16T09:42:16.361Z,84.00
2018-06-16T09:44:43.678Z,86.40
2018-06-16T09:47:11.014Z,84.00
2018-06-16T09:49:38.357Z,83.00
2018-06-16T09:52:05.739Z,83.90
2018-06-16T09:54:33.049Z,83.10
2018-06-16T09:57:00.373Z,78.90
2018-06-16T09:59:27.695Z,75.80
2018-06-16T10:01:55.001Z,80.70
2018-06-16T10:04:22.953Z,75.70
2018-06-16T10:06:50.326Z,77.40
2018-06-16T10:09:17.679Z,78.50
2018-06-16T10:11:45.022Z,80.10
2018-06-16T10:14:12.335Z,78.20
2018-06-16T10:16:39.720Z,77.40
2018-06-16T10:19:07.035Z,75.90
2018-06-16T10:21:34.350Z,78.80
2018-06-16T10:24:01.697Z,79.30
2018-06-16T10:26:29.026Z,77.10
2018-06-16T10:28:56.351Z,75.10
2018-06-16T10:31:23.728Z,77.60
2018-06-16T10:33:51.114Z,73.50
2018-06-16T10:36:18.447Z,74.90
2018-06-16T10:38:45.786Z,73.50
2018-06-16T10:41:13.289Z,73.40
2018-06-16T10:43:40.613Z,76.60
2018-06-16T10:46:07.935Z,77.50
2018-06-16T10:48:35.253Z,76.70
2018-06-16T10:51:02.739Z,73.50
2018-06-16T10:53:30.112Z,75.00
2018-06-16T10:55:57.433Z,74.90
2018-06-16T10:58:24.774Z,73.60
2018-06-16T11:00:52.069Z,74.00
2018-06-16T11:03:19.393Z,70.60
2018-06-16T11:05:46.757Z,75.60
2018-06-16T11:08:14.165Z,73.50
2018-06-16T11:10:41.494Z,75.50
2018-06-16T11:13:08.825Z,75.30
2018-06-16T11:15:36.137Z,70.80
2018-06-16T11:18:03.533Z,73.60
2018-06-16T11:20:30.862Z,76.10
2018-06-16T11:22:58.184Z,72.90
2018-06-16T11:25:25.525Z,77.20
2018-06-16T11:27:52.839Z,78.30
2018-06-16T11:30:20.184Z,72.10
2018-06-16T11:32:47.639Z,75.40
2018-06-16T11:35:14.997Z,76.30
2018-06-16T11:37:42.385Z,73.80
2018-06-16T11:40:09.740Z,75.10
2018-06-16T11:42:37.053Z,77.30
2018-06-16T11:45:04.621Z,79.00
2018-06-16T11:47:32.002Z,73.00
2018-06-16T11:49:59.319Z,76.80
2018-06-16T11:52:26.781Z,79.90
2018-06-16T11:54:54.208Z,71.90
2018-06-16T11:57:21.525Z,70.40
2018-06-16T11:59:48.829Z,73.00
2018-06-16T12:02:16.229Z,70.40
2018-06-16T12:04:43.573Z,70.00
2018-06-16T12:07:10.880Z,72.50
2018-06-16T12:09:38.292Z,70.80
2018-06-16T12:12:05.653Z,76.20
2018-06-16T12:14:32.990Z,77.90
2018-06-16T12:17:00.307Z,77.40
2018-06-16T12:19:27.700Z,70.50
2018-06-16T12:21:55.054Z,72.40
2018-06-16T12:24:22.416Z,70.00
2018-06-16T12:26:49.890Z,68.30
2018-06-16T12:29:17.543Z,68.50
2018-06-16T12:31:44.864Z,65.20
2018-06-16T12:34:12.209Z,64.70
2018-06-16T12:36:39.529Z,63.90
2018-06-16T12:39:08.589Z,67.50
2018-06-16T12:41:35.890Z,66.80
2018-06-16T12:44:03.238Z,70.40
2018-06-16T12:46:30.544Z,69.50
2018-06-16T12:48:58.009Z,70.00
2018-06-16T12:51:25.393Z,71.30
2018-06-16T12:53:52.763Z,71.90
2018-06-16T12:56:20.241Z,69.00
2018-06-16T12:58:47.589Z,68.80
2018-06-16T13:01:15.018Z,69.10
2018-06-16T13:03:42.377Z,71.90
2018-06-16T13:06:09.749Z,68.40
2018-06-16T13:08:37.090Z,65.70
2018-06-16T13:11:04.460Z,65.30
2018-06-16T13:13:31.764Z,66.60
2018-06-16T13:15:59.121Z,63.90
2018-06-16T13:18:26.418Z,66.60
2018-06-16T13:20:54.170Z,67.30
2018-06-16T13:23:21.485Z,62.00
2018-06-16T13:25:48.865Z,66.30
2018-06-16T13:28:16.175Z,66.80
2018-06-16T13:30:43.489Z,65.50
2018-06-16T13:33:10.885Z,63.60
2018-06-16T13:35:38.232Z,61.00
2018-06-16T13:38:05.592Z,63.40
2018-06-16T13:40:32.914Z,58.70
2018-06-16T13:43:00.250Z,57.80
2018-06-16T13:45:28.381Z,59.00
2018-06-16T13:47:55.770Z,56.30
2018-06-16T13:50:23.233Z,59.20
2018-06-16T13:52:50.545Z,58.00
2018-06-16T13:55:17.869Z,58.20
2018-06-16T13:57:45.366Z,58.70
2018-06-16T14:00:12.710Z,58.80
2018-06-16T14:02:40.017Z,58.10
2018-06-16T14:05:07.365Z,59.60
2018-06-16T14:07:34.678Z,61.30
2018-06-16T14:10:01.997Z,61.20
2018-06-16T14:12:29.309Z,59.20
2018-06-16T14:14:56.697Z,58.50
2018-06-16T14:17:24.038Z,57.60
2018-06-16T14:19:51.391Z,58.50
2018-06-16T14:22:18.745Z,58.40
2018-06-16T14:24:46.062Z,63.30
2018-06-16T14:27:13.465Z,61.70
2018-06-16T14:29:40.817Z,60.90
2018-06-16T14:32:08.149Z,60.80
2018-06-16T14:34:35.476Z,60.80
2018-06-16T14:37:02.820Z,62.60
2018-06-16T14:39:30.133Z,58.10
2018-06-16T14:41:57.496Z,63.70
2018-06-16T14:44:24.913Z,62.70
2018-06-16T14:46:52.262Z,61.80
2018-06-16T14:49:19.621Z,65.90
2018-06-16T14:51:47.006Z,64.70
2018-06-16T14:54:14.485Z,63.60
2018-06-16T14:56:41.909Z,64.10
2018-06-16T14:59:09.331Z,64.00
2018-06-16T15:01:36.753Z,67.40
2018-06-16T15:04:04.216Z,65.70
2018-06-16T15:06:31.542Z,67.80
2018-06-16T15:08:59.200Z,67.20
2018-06-16T15:11:26.513Z,66.40
2018-06-16T15:13:53.817Z,67.00
2018-06-16T15:16:21.171Z,68.80
2018-06-16T15:18:48.617Z,67.70
2018-06-16T15:21:15.957Z,65.90
2018-06-16T15:23:43.349Z,68.20
2018-06-16T15:26:10.754Z,68.10
2018-06-16T15:31:05.400Z,66.00
2018-06-16T15:33:32.749Z,69.10
2018-06-16T15:36:00.076Z,70.00
2018-06-16T15:38:27.382Z,71.10
2018-06-16T15:40:54.729Z,69.40
2018-06-16T15:43:22.049Z,69.80
2018-06-16T15:45:49.353Z,69.30
2018-06-16T15:48:16.665Z,71.60
2018-06-16T15:50:44.010Z,68.30
2018-06-16T15:53:11.337Z,69.50
2018-06-16T15:55:38.685Z,68.40
2018-06-16T15:58:06.057Z,69.90
2018-06-16T16:00:33.432Z,67.20
2018-06-16T16:03:00.745Z,65.10
2018-06-16T16:05:28.061Z,67.50
2018-06-16T16:07:55.378Z,66.50
2018-06-16T16:10:22.702Z,66.00
2018-06-16T16:12:50.033Z,68.10
2018-06-16T16:15:17.498Z,67.70
2018-06-16T16:17:44.876Z,65.60
2018-06-16T16:20:12.319Z,61.30
2018-06-16T16:22:39.649Z,65.00
2018-06-16T16:25:06.981Z,60.60
2018-06-16T16:27:34.365Z,63.90
2018-06-16T16:30:01.754Z,64.60
2018-06-16T16:32:29.079Z,61.00
2018-06-16T16:34:56.453Z,63.00
2018-06-16T16:37:23.809Z,64.80
2018-06-16T16:39:51.209Z,62.00
2018-06-16T16:42:18.521Z,61.80
2018-06-16T16:44:45.944Z,61.30
2018-06-16T16:47:13.261Z,63.20
2018-06-16T16:49:40.561Z,63.70
2018-06-16T16:52:07.994Z,66.20
2018-06-16T16:54:35.320Z,65.70
2018-06-16T16:57:02.669Z,64.50
2018-06-16T16:59:30.118Z,66.30
2018-06-16T17:01:57.434Z,65.60
2018-06-16T17:04:24.733Z,65.20
2018-06-16T17:06:52.060Z,65.20
2018-06-16T17:09:19.723Z,62.20
2018-06-16T17:11:47.026Z,64.20
2018-06-16T17:14:14.330Z,67.20
2018-06-16T17:16:41.685Z,63.80
2018-06-16T17:19:09.019Z,63.60
2018-06-16T17:21:36.430Z,64.30
2018-06-16T17:24:03.809Z,65.00
2018-06-16T17:26:31.145Z,64.80
2018-06-16T17:28:58.508Z,63.70
2018-06-16T17:31:26.011Z,65.90
2018-06-16T17:33:53.548Z,66.70
2018-06-16T17:38:48.281Z,66.20
2018-06-16T17:41:15.673Z,66.00
2018-06-16T17:43:43.017Z,66.10
2018-06-16T17:46:10.337Z,66.30
2018-06-16T17:48:37.801Z,70.30
2018-06-16T17:51:05.183Z,65.70
2018-06-16T17:53:32.595Z,68.20
2018-06-16T17:55:59.965Z,68.70
2018-06-16T17:58:27.283Z,69.80
2018-06-16T18:00:54.640Z,67.10
2018-06-16T18:03:22.078Z,67.70
2018-06-16T18:05:49.385Z,67.90
2018-06-16T18:08:16.717Z,70.70
2018-06-16T18:13:11.337Z,69.80
2018-06-16T18:15:38.661Z,69.10
2018-06-16T18:18:06.102Z,70.40
2018-06-16T18:20:33.596Z,74.30
2018-06-16T18:23:00.917Z,73.60
2018-06-16T18:25:28.265Z,73.30
2018-06-16T18:27:55.650Z,75.20
2018-06-16T18:30:23.349Z,74.80
2018-06-16T18:32:50.693Z,73.40
2018-06-16T18:35:18.054Z,72.90
2018-06-16T18:37:45.381Z,74.50
2018-06-16T18:40:12.685Z,74.00
2018-06-16T18:42:40.009Z,75.80
2018-06-16T18:45:07.342Z,74.60
2018-06-16T18:47:35.139Z,75.60
2018-06-16T18:50:02.493Z,75.80
2018-06-16T18:52:29.811Z,75.00
2018-06-16T18:54:57.141Z,75.80
2018-06-16T18:57:24.516Z,75.10
2018-06-16T18:59:51.892Z,77.10
2018-06-16T19:02:19.225Z,77.50
2018-06-16T19:04:46.601Z,77.80
2018-06-16T19:07:13.941Z,79.40
2018-06-16T19:09:41.257Z,80.10
2018-06-16T19:12:08.577Z,80.00
2018-06-16T19:14:35.998Z,80.90
2018-06-16T19:17:03.392Z,80.50
2018-06-16T19:19:30.729Z,81.60
2018-06-16T19:21:58.116Z,81.80
2018-06-16T19:24:25.509Z,82.50
2018-06-16T19:26:52.845Z,82.40
2018-06-16T19:29:20.194Z,82.30
2018-06-16T19:31:47.574Z,82.50
2018-06-16T19:34:14.889Z,82.70
2018-06-16T19:36:42.209Z,84.10
2018-06-16T19:39:10.941Z,84.70
2018-06-16T19:41:38.393Z,84.10
2018-06-16T19:44:05.838Z,83.20
2018-06-16T19:46:33.217Z,83.20
2018-06-16T19:49:00.527Z,83.40
2018-06-16T19:51:27.934Z,83.20
2018-06-16T19:53:55.232Z,81.50
2018-06-16T19:56:22.692Z,83.90
2018-06-16T19:58:50.083Z,84.30
2018-06-16T20:01:17.409Z,85.10
2018-06-16T20:03:44.721Z,86.30
2018-06-16T20:06:12.189Z,84.70
2018-06-16T20:08:39.544Z,83.00
2018-06-16T20:11:06.856Z,83.50
2018-06-16T20:13:34.173Z,84.90
2018-06-16T20:16:01.548Z,85.70
2018-06-16T20:18:29.001Z,85.40
2018-06-16T20:20:56.798Z,84.60
2018-06-16T20:23:24.145Z,84.80
2018-06-16T20:25:51.536Z,86.60
2018-06-16T20:28:18.877Z,88.20
2018-06-16T20:30:46.177Z,89.10
2018-06-16T20:33:13.493Z,90.00
2018-06-16T20:35:40.818Z,91.90
2018-06-16T20:38:08.126Z,94.00
2018-06-16T20:40:35.425Z,95.50
2018-06-16T20:43:02.945Z,96.90
2018-06-16T20:45:30.392Z,98.00
2018-06-16T20:47:58.289Z,99.00
2018-06-16T20:50:25.617Z,99.70
2018-06-16T20:52:52.946Z,99.90
2018-06-16T20:55:20.241Z,99.90
2018-06-16T20:57:47.575Z,99.90
2018-06-16T21:00:14.893Z,99.90
2018-06-16T21:02:42.554Z,99.90
2018-06-16T21:05:09.881Z,99.90
2018-06-16T21:07:37.277Z,99.90
2018-06-16T21:10:04.754Z,99.90
2018-06-16T21:12:32.053Z,99.90
2018-06-16T21:14:59.398Z,99.90
2018-06-16T21:17:26.781Z,99.90
2018-06-16T21:19:54.123Z,99.90
2018-06-16T21:22:21.433Z,99.90
2018-06-16T21:24:48.753Z,99.90
2018-06-16T21:27:16.101Z,99.90
2018-06-16T21:29:43.421Z,99.90
2018-06-16T21:32:10.757Z,99.90
2018-06-16T21:34:38.113Z,99.90
2018-06-16T21:37:05.441Z,99.90
2018-06-16T21:39:32.784Z,99.90
2018-06-16T21:42:00.141Z,99.90
2018-06-16T21:44:27.428Z,99.90
2018-06-16T21:46:54.777Z,99.90
2018-06-16T21:49:22.090Z,99.90
2018-06-16T21:51:49.501Z,99.90
2018-06-16T21:54:16.834Z,99.90
2018-06-16T21:56:44.182Z,99.90
2018-06-16T21:59:11.497Z,99.90
2018-06-16T22:01:38.828Z,99.90
2018-06-16T22:04:06.538Z,99.90
2018-06-16T22:06:34.109Z,99.90
2018-06-16T22:09:01.582Z,99.90
2018-06-16T22:11:28.941Z,99.90
2018-06-16T22:13:56.301Z,99.90
2018-06-16T22:16:23.670Z,99.90
2018-06-16T22:18:51.033Z,99.90
2018-06-16T22:21:18.377Z,99.90
2018-06-16T22:23:45.684Z,99.90
2018-06-16T22:26:13.037Z,99.90
2018-06-16T22:28:40.337Z,99.90
2018-06-16T22:31:07.733Z,99.90
2018-06-16T22:33:35.042Z,99.90
2018-06-16T22:36:02.385Z,99.90
2018-06-16T22:38:29.768Z,99.90
2018-06-16T22:40:57.229Z,99.90
2018-06-16T22:43:24.565Z,99.90
2018-06-16T22:45:51.913Z,99.90
2018-06-16T22:48:19.449Z,99.90
2018-06-16T22:50:46.860Z,99.90
2018-06-16T22:53:14.161Z,99.90
2018-06-16T22:55:41.458Z,99.90
2018-06-16T22:58:08.848Z,99.90
2018-06-16T23:00:36.257Z,99.90
2018-06-16T23:03:03.645Z,99.90
2018-06-16T23:05:30.977Z,99.90
2018-06-16T23:07:58.349Z,99.90
2018-06-16T23:10:25.708Z,99.90
2018-06-16T23:12:53.213Z,99.90
2018-06-16T23:15:20.612Z,99.90
2018-06-16T23:17:47.953Z,99.90
2018-06-16T23:20:15.299Z,99.90
2018-06-16T23:22:42.712Z,99.90
2018-06-16T23:25:10.069Z,99.90
2018-06-16T23:27:37.465Z,99.90
2018-06-16T23:30:04.974Z,99.90
2018-06-16T23:32:32.374Z,99.90
2018-06-16T23:34:59.679Z,99.90
2018-06-16T23:37:27.014Z,99.90
2018-06-16T23:39:54.390Z,99.90
2018-06-16T23:42:21.776Z,99.90
2018-06-16T23:44:49.089Z,99.90
2018-06-16T23:47:16.396Z,99.90
2018-06-16T23:49:43.702Z,99.90
2018-06-16T23:52:11.061Z,99.90
2018-06-16T23:54:38.420Z,99.90
2018-06-16T23:57:05.824Z,99.90
2018-06-16T23:59:33.214Z,99.90
